Time;durP1;ratioP1;P1;durP2;ratioP2;P2;SDS_P1;SDS_P2;PMS_P1;PMS_P2;Temp;Humidity;BMP_temperature;BMP_pressure;BME280_temperature;BME280_humidity;BME280_pressure;Samples;Min_cycle;Max_cycle;Signal;HPM_P1;HPM_P2
2022/09/30 00:00:26;;;;;;;0.30;0.30;;;;;;;0.66;80.07;97931.91;6103154;29;20111;-72
2022/09/30 00:03:30;;;;;;;0.20;0.20;;;;;;;0.66;79.99;97937.09;6103461;29;20143;-72
2022/09/30 00:06:37;;;;;;;0.40;0.20;;;;;;;0.70;80.26;97941.38;6103261;29;20044;-72
2022/09/30 00:09:38;;;;;;;0.20;0.20;;;;;;;0.70;80.31;97938.78;6103595;29;20044;-72
2022/09/30 00:12:42;;;;;;;0.35;0.30;;;;;;;0.69;79.71;97934.47;6103272;29;20043;-72
2022/09/30 00:15:48;;;;;;;0.20;0.20;;;;;;;0.72;80.49;97941.38;6102860;29;20048;-72
2022/09/30 00:18:51;;;;;;;0.20;0.20;;;;;;;0.75;80.34;97939.59;6102963;29;20055;-72
2022/09/30 00:21:56;;;;;;;0.30;0.30;;;;;;;0.70;79.77;97946.53;6103049;29;20035;-72
2022/09/30 00:25:02;;;;;;;0.40;0.40;;;;;;;0.77;79.84;97958.59;6101590;29;20040;-72
2022/09/30 00:28:10;;;;;;;0.43;0.30;;;;;;;0.89;78.75;97947.25;6102876;29;20418;-71
2022/09/30 00:31:18;;;;;;;0.22;0.22;;;;;;;0.88;78.63;97956.78;6102700;29;20043;-72
2022/09/30 00:34:20;;;;;;;0.22;0.20;;;;;;;0.93;77.81;97954.13;6102690;29;20539;-71
2022/09/30 00:37:21;;;;;;;0.35;0.35;;;;;;;0.79;78.49;97954.28;6102649;29;20051;-71
2022/09/30 00:40:23;;;;;;;0.73;0.40;;;;;;;0.60;78.64;97965.66;6101040;29;20150;-71
2022/09/30 00:43:44;;;;;;;0.25;0.22;;;;;;;0.60;79.22;97965.66;6102125;29;20213;-71
2022/09/30 00:46:49;;;;;;;0.30;0.30;;;;;;;0.57;78.84;97955.31;6102412;29;20044;-71
2022/09/30 00:49:54;;;;;;;0.40;0.40;;;;;;;0.53;79.37;97969.13;6102211;29;20471;-71
2022/09/30 00:53:11;;;;;;;0.50;0.40;;;;;;;0.56;79.19;97969.13;6101861;29;20044;-72
2022/09/30 00:56:23;;;;;;;0.30;0.30;;;;;;;0.69;79.16;97970.75;6102208;29;20074;-72
2022/09/30 00:59:49;;;;;;;0.40;0.25;;;;;;;0.51;79.43;97976.06;6102266;29;20142;-71
2022/09/30 01:02:56;;;;;;;0.28;0.28;;;;;;;0.52;79.82;97973.47;6100964;29;20080;-71
2022/09/30 01:06:00;;;;;;;0.22;0.22;;;;;;;0.56;79.62;97976.88;6101940;29;20080;-72
2022/09/30 01:09:02;;;;;;;1.10;0.40;;;;;;;0.60;79.98;97988.97;6101394;29;20510;-71
2022/09/30 01:12:15;;;;;;;0.20;0.15;;;;;;;0.75;79.30;97987.97;6101973;29;20048;-72
2022/09/30 01:15:23;;;;;;;0.63;0.52;;;;;;;0.51;79.58;97991.59;6101782;29;20052;-72
2022/09/30 01:18:35;;;;;;;0.77;0.40;;;;;;;0.56;80.15;97995.00;6101839;29;20052;-72
2022/09/30 01:22:03;;;;;;;0.50;0.50;;;;;;;0.63;79.57;97991.53;6101815;29;20179;-72
2022/09/30 01:25:44;;;;;;;0.20;0.20;;;;;;;0.61;79.58;97993.25;6101806;29;20490;-71
2022/09/30 01:29:22;;;;;;;0.60;0.30;;;;;;;0.54;80.02;97996.75;6102193;29;20063;-71
2022/09/30 01:32:37;;;;;;;0.47;0.47;;;;;;;0.53;80.43;97995.03;6101771;29;20048;-72
2022/09/30 01:35:57;;;;;;;0.88;0.82;;;;;;;0.59;80.49;98000.16;6101481;29;20092;-71
2022/09/30 01:39:33;;;;;;;0.35;0.35;;;;;;;0.76;79.64;97998.31;6101367;29;20054;-71
2022/09/30 01:42:53;;;;;;;0.63;0.40;;;;;;;0.53;79.66;98001.06;6101670;29;20048;-71
2022/09/30 01:46:13;;;;;;;0.40;0.40;;;;;;;0.71;79.67;98007.88;6100447;29;20056;-72
2022/09/30 01:49:44;;;;;;;0.22;0.22;;;;;;;0.53;79.95;98011.44;6101610;29;20168;-72
2022/09/30 01:53:00;;;;;;;0.35;0.32;;;;;;;0.63;80.46;98007.06;6099996;29;20063;-72
2022/09/30 01:56:15;;;;;;;0.30;0.30;;;;;;;0.65;79.86;98000.13;6101259;29;20048;-72
2022/09/30 01:59:40;;;;;;;1.63;0.80;;;;;;;0.56;79.51;98007.97;6101301;29;20134;-71
2022/09/30 02:02:51;;;;;;;;;;;;;;;0.78;79.74;98009.53;6102755;29;20119;-71
2022/09/30 02:06:16;;;;;;;0.30;0.20;;;;;;;0.54;79.37;98008.00;6105905;29;19925;-71
2022/09/30 02:09:26;;;;;;;0.43;0.40;;;;;;;0.43;80.21;98021.00;6105985;29;20056;-72
2022/09/30 02:12:33;;;;;;;0.20;0.20;;;;;;;0.58;79.66;98019.19;6105619;29;20047;-72
2022/09/30 02:15:39;;;;;;;0.50;0.30;;;;;;;0.64;79.57;98024.31;6105331;29;20411;-72
2022/09/30 02:18:49;;;;;;;0.55;0.38;;;;;;;0.64;79.79;98024.31;6105408;29;20060;-71
2022/09/30 02:22:06;;;;;;;0.40;0.40;;;;;;;0.57;80.29;98017.47;6105469;29;20137;-72
2022/09/30 02:25:17;;;;;;;0.30;0.30;;;;;;;0.50;80.57;98028.72;6105483;29;20414;-72
2022/09/30 02:28:26;;;;;;;1.73;0.90;;;;;;;0.54;80.82;98025.22;6105328;29;20086;-72
2022/09/30 02:31:37;;;;;;;3.50;2.03;;;;;;;0.56;80.91;98032.13;6104741;29;20051;-72
2022/09/30 02:34:48;;;;;;;5.35;2.45;;;;;;;0.65;80.87;98029.50;6105022;29;20499;-72
2022/09/30 02:37:58;;;;;;;0.65;0.60;;;;;;;0.82;80.26;98034.56;6104774;29;20131;-72
2022/09/30 02:41:20;;;;;;;1.52;0.82;;;;;;;0.76;80.24;98039.75;6104907;29;20533;-72
2022/09/30 02:44:24;;;;;;;0.85;0.60;;;;;;;0.80;80.46;98036.28;6104866;29;20051;-71
2022/09/30 02:47:30;;;;;;;0.45;0.45;;;;;;;0.93;80.57;98036.19;6104820;29;20056;-71
2022/09/30 02:50:40;;;;;;;1.13;0.77;;;;;;;0.96;80.27;98042.19;6103724;29;20135;-71
2022/09/30 02:54:15;;;;;;;0.50;0.50;;;;;;;1.11;80.10;98051.59;6104815;29;20044;-72
2022/09/30 02:57:28;;;;;;;0.32;0.30;;;;;;;1.17;79.59;98053.28;6104486;29;20056;-72
2022/09/30 03:00:30;;;;;;;0.73;0.40;;;;;;;0.93;79.68;98057.78;6105130;29;20144;-71
2022/09/30 03:03:42;;;;;;;0.32;0.20;;;;;;;0.92;79.83;98060.38;6104451;29;20040;-72
2022/09/30 03:06:45;;;;;;;0.28;0.28;;;;;;;1.16;79.36;98055.03;6104812;29;20040;-71
2022/09/30 03:09:57;;;;;;;0.70;0.57;;;;;;;1.12;78.51;98064.53;6104844;29;20549;-71
2022/09/30 03:13:14;;;;;;;0.47;0.35;;;;;;;1.03;78.74;98071.53;6104726;29;20040;-73
2022/09/30 03:16:51;;;;;;;0.40;0.40;;;;;;;0.96;78.75;98072.44;6103731;29;20139;-72
2022/09/30 03:20:04;;;;;;;0.20;0.20;;;;;;;1.02;78.94;98073.28;6104039;29;20539;-72
2022/09/30 03:23:22;;;;;;;0.38;0.38;;;;;;;1.20;78.50;98087.81;6104296;29;20139;-72
2022/09/30 03:26:48;;;;;;;0.30;0.30;;;;;;;1.07;77.79;98100.00;6104146;29;20050;-72
2022/09/30 03:30:04;;;;;;;0.43;0.40;;;;;;;1.03;78.33;98085.34;6102415;29;20059;-72
2022/09/30 03:33:13;;;;;;;19.88;8.63;;;;;;;1.05;79.06;98098.31;6102930;29;20540;-72
2022/09/30 03:36:17;;;;;;;3.53;2.00;;;;;;;1.16;78.61;98099.09;6103575;29;20040;-72
2022/09/30 03:39:38;;;;;;;1.30;0.60;;;;;;;1.20;78.67;98097.31;6103557;29;20044;-72
2022/09/30 03:43:15;;;;;;;3.65;1.88;;;;;;;1.31;78.54;98108.47;6102548;29;20143;-71
2022/09/30 03:46:21;;;;;;;;;;;;;;;1.44;78.66;98107.47;6090611;29;20055;-71
2022/09/30 03:49:36;;;;;;;0.30;0.30;;;;;;;1.46;77.78;98110.06;6103304;29;19955;-71
2022/09/30 03:52:40;;;;;;;0.40;0.40;;;;;;;1.35;77.46;98108.41;6103645;29;20422;-71
2022/09/30 03:55:51;;;;;;;0.80;0.40;;;;;;;1.35;77.30;98117.94;6103542;29;20048;-71
2022/09/30 03:58:56;;;;;;;0.40;0.40;;;;;;;1.34;77.38;98122.25;6103142;29;20080;-73
2022/09/30 04:01:58;;;;;;;0.52;0.43;;;;;;;1.19;77.95;98125.00;6102862;29;20079;-72
2022/09/30 04:04:59;;;;;;;0.50;0.40;;;;;;;1.32;77.03;98118.81;6117772;29;20076;-72
2022/09/30 04:08:03;;;;;;;0.80;0.52;;;;;;;1.43;77.05;98125.66;6103171;29;20044;-72
2022/09/30 04:11:04;;;;;;;0.50;0.47;;;;;;;1.26;77.73;98123.19;6102945;29;20047;-72
2022/09/30 04:14:08;;;;;;;0.63;0.47;;;;;;;1.45;77.34;98123.91;6102989;29;20047;-72
2022/09/30 04:17:12;;;;;;;1.05;0.55;;;;;;;1.47;77.26;98127.34;6102499;29;20052;-72
2022/09/30 04:20:17;;;;;;;0.57;0.57;;;;;;;1.65;77.05;98132.38;6102696;29;20052;-72
2022/09/30 04:23:20;;;;;;;0.60;0.60;;;;;;;1.61;75.42;98130.66;6102949;29;20184;-72
2022/09/30 04:26:25;;;;;;;0.50;0.50;;;;;;;1.46;76.91;98125.63;6101768;29;20063;-71
2022/09/30 04:29:31;;;;;;;0.40;0.40;;;;;;;1.61;75.98;98140.19;6102568;29;20059;-71
2022/09/30 04:32:33;;;;;;;0.50;0.30;;;;;;;1.64;75.98;98145.34;6102748;29;20052;-71
2022/09/30 04:35:36;;;;;;;0.50;0.50;;;;;;;1.52;76.33;98141.13;6102667;29;20582;-71
2022/09/30 04:38:38;;;;;;;0.77;0.60;;;;;;;1.58;76.63;98151.44;6102331;29;20066;-71
2022/09/30 04:41:42;;;;;;;0.68;0.50;;;;;;;1.67;76.69;98130.66;6102465;29;20040;-71
2022/09/30 04:44:43;;;;;;;0.57;0.50;;;;;;;1.60;76.60;98135.88;6101230;29;20521;-71
2022/09/30 04:47:47;;;;;;;1.65;0.60;;;;;;;1.57;76.93;98147.16;6100760;29;20056;-70
2022/09/30 04:50:53;;;;;;;2.15;1.45;;;;;;;1.57;77.77;98144.56;6102360;29;20067;-69
2022/09/30 04:53:55;;;;;;;1.02;0.30;;;;;;;1.82;77.40;98157.31;6102048;29;20183;-70
2022/09/30 04:56:56;;;;;;;0.65;0.60;;;;;;;1.58;77.48;98151.44;6101816;29;20410;-70
2022/09/30 05:00:01;;;;;;;0.90;0.70;;;;;;;1.46;78.70;98157.59;6102042;29;20052;-70
2022/09/30 05:03:08;;;;;;;1.60;0.70;;;;;;;1.68;79.22;98158.28;6102061;29;20044;-70
2022/09/30 05:06:10;;;;;;;0.50;0.50;;;;;;;1.87;78.46;98158.09;6101463;29;20538;-70
2022/09/30 05:09:16;;;;;;;0.82;0.73;;;;;;;1.81;78.62;98161.63;6101989;29;20048;-69
2022/09/30 05:12:24;;;;;;;0.80;0.60;;;;;;;1.71;79.35;98158.28;6101821;29;20056;-70
2022/09/30 05:15:28;;;;;;;0.85;0.60;;;;;;;1.75;79.25;98153.91;6101377;29;20213;-71
2022/09/30 05:18:30;;;;;;;0.40;0.40;;;;;;;1.94;78.12;98157.19;6101703;29;20119;-70
2022/09/30 05:21:34;;;;;;;0.40;0.40;;;;;;;1.79;78.01;98166.84;6101640;29;20130;-70
2022/09/30 05:24:40;;;;;;;0.77;0.77;;;;;;;1.80;78.55;98168.56;6101720;29;20471;-70
2022/09/30 05:27:47;;;;;;;0.70;0.60;;;;;;;1.74;79.17;98158.22;6101443;29;20067;-69
2022/09/30 05:30:56;;;;;;;0.60;0.45;;;;;;;1.82;78.97;98178.09;6101431;29;20503;-70
2022/09/30 05:34:01;;;;;;;0.50;0.50;;;;;;;1.89;78.24;98166.75;6101335;29;20059;-70
2022/09/30 05:37:03;;;;;;;0.28;0.22;;;;;;;1.94;77.96;98167.56;6099820;29;20131;-69
2022/09/30 05:40:06;;;;;;;1.15;0.52;;;;;;;2.04;76.32;98179.59;6105836;29;20064;-70
2022/09/30 05:43:11;;;;;;;0.40;0.37;;;;;;;2.01;76.37;98172.69;6106452;29;20051;-70
2022/09/30 05:46:21;;;;;;;0.60;0.50;;;;;;;1.90;76.36;98179.72;6106386;29;20078;-70
2022/09/30 05:49:25;;;;;;;0.70;0.60;;;;;;;1.98;77.28;98180.53;6105609;29;20610;-70
2022/09/30 05:52:27;;;;;;;0.38;0.38;;;;;;;2.01;76.98;98188.28;6106106;29;20048;-69
2022/09/30 05:55:32;;;;;;;0.70;0.57;;;;;;;2.10;76.69;98187.31;6105584;29;20062;-69
2022/09/30 05:58:37;;;;;;;0.80;0.80;;;;;;;2.11;76.95;98194.22;6104548;29;20054;-70
2022/09/30 06:01:39;;;;;;;1.63;1.52;;;;;;;2.18;75.74;98195.91;6105970;29;20052;-69
2022/09/30 06:04:40;;;;;;;1.73;1.30;;;;;;;2.17;76.16;98201.94;6104024;29;20537;-69
2022/09/30 06:07:45;;;;;;;2.95;1.75;;;;;;;2.10;76.56;98202.91;6106076;29;20578;-68
2022/09/30 06:10:50;;;;;;;2.97;1.70;;;;;;;2.16;77.10;98205.44;6106059;29;20081;-69
2022/09/30 06:13:51;;;;;;;1.42;1.10;;;;;;;2.38;74.91;98207.81;6105752;29;20036;-68
2022/09/30 06:16:52;;;;;;;0.70;0.60;;;;;;;2.45;74.54;98199.06;6105346;29;20135;-68
2022/09/30 06:19:55;;;;;;;0.50;0.50;;;;;;;2.55;74.32;98216.28;6105172;29;20163;-69
2022/09/30 06:23:02;;;;;;;0.52;0.52;;;;;;;2.59;73.55;98212.75;6105184;29;20044;-68
2022/09/30 06:26:07;;;;;;;1.20;0.60;;;;;;;2.59;73.63;98222.28;6104913;29;20056;-68
2022/09/30 06:29:11;;;;;;;0.63;0.63;;;;;;;2.57;72.39;98219.69;6105373;29;20052;-68
2022/09/30 06:32:13;;;;;;;1.38;0.50;;;;;;;2.60;73.38;98219.66;6105323;29;20044;-68
2022/09/30 06:35:22;;;;;;;1.00;0.60;;;;;;;2.86;71.88;98215.88;6105167;29;20048;-68
2022/09/30 06:38:26;;;;;;;0.38;0.38;;;;;;;2.89;70.12;98221.06;6105277;29;20063;-69
2022/09/30 06:41:30;;;;;;;0.60;0.52;;;;;;;2.68;71.13;98228.22;6104812;29;20051;-69
2022/09/30 06:44:32;;;;;;;0.80;0.73;;;;;;;2.62;71.19;98228.31;6103517;29;20059;-68
2022/09/30 06:47:37;;;;;;;0.85;0.60;;;;;;;2.79;70.71;98224.66;6104662;29;20052;-68
2022/09/30 06:50:41;;;;;;;0.82;0.70;;;;;;;2.79;70.27;98225.50;6103561;29;20064;-69
2022/09/30 06:53:49;;;;;;;0.80;0.80;;;;;;;2.68;70.82;98238.63;6103525;29;20055;-68
2022/09/30 06:56:52;;;;;;;0.63;0.60;;;;;;;2.65;71.32;98238.66;6104605;29;20059;-67
2022/09/30 06:59:55;;;;;;;0.75;0.73;;;;;;;2.78;70.48;98248.94;6104604;29;20060;-67
2022/09/30 07:02:59;;;;;;;0.65;0.60;;;;;;;2.67;70.85;98236.06;6104614;29;20502;-67
2022/09/30 07:06:02;;;;;;;0.40;0.40;;;;;;;2.89;68.87;98237.53;6104337;29;20056;-69
2022/09/30 07:09:05;;;;;;;0.55;0.55;;;;;;;2.78;69.50;98243.75;6104107;29;20051;-68
2022/09/30 07:12:12;;;;;;;0.77;0.70;;;;;;;2.74;69.27;98253.28;6104561;29;20052;-67
2022/09/30 07:15:13;;;;;;;1.70;0.80;;;;;;;2.68;69.80;98248.16;6104527;29;20501;-67
2022/09/30 07:18:19;;;;;;;0.70;0.63;;;;;;;2.61;70.63;98256.94;6104385;29;20459;-69
2022/09/30 07:21:23;;;;;;;6.57;3.55;;;;;;;2.62;71.08;98254.28;6104479;29;20044;-69
2022/09/30 07:24:28;;;;;;;3.05;1.27;;;;;;;2.66;71.40;98258.59;6102954;29;20499;-68
2022/09/30 07:27:32;;;;;;;1.77;1.00;;;;;;;2.90;71.42;98261.78;6103828;29;20056;-69
2022/09/30 07:30:36;;;;;;;;;;;;;;;3.20;69.68;98262.25;6104127;29;20056;-68
2022/09/30 07:33:40;;;;;;;0.80;0.80;;;;;;;2.92;68.48;98266.09;6103879;29;19923;-68
2022/09/30 07:36:44;;;;;;;0.52;0.52;;;;;;;2.95;68.22;98267.78;6103806;29;20971;-68
2022/09/30 07:39:49;;;;;;;0.77;0.77;;;;;;;2.89;67.77;98267.88;6103499;29;20147;-69
2022/09/30 07:42:51;;;;;;;0.60;0.40;;;;;;;2.68;69.06;98269.81;6103443;29;20059;-69
2022/09/30 07:45:54;;;;;;;0.50;0.50;;;;;;;2.80;69.11;98273.16;6103622;29;20051;-69
2022/09/30 07:49:07;;;;;;;0.95;0.85;;;;;;;2.84;68.43;98274.84;6117962;29;20044;-68
2022/09/30 07:52:11;;;;;;;0.60;0.60;;;;;;;2.91;68.00;98266.94;6103478;29;20147;-68
2022/09/30 07:55:12;;;;;;;0.70;0.50;;;;;;;2.95;67.90;98282.53;6103467;29;20422;-69
2022/09/30 07:58:13;;;;;;;0.80;0.80;;;;;;;2.81;68.72;98282.69;6103264;29;20050;-68
2022/09/30 08:01:18;;;;;;;0.70;0.70;;;;;;;2.96;68.09;98284.25;6102705;29;20039;-69
2022/09/30 08:04:22;;;;;;;0.80;0.77;;;;;;;2.78;69.13;98285.34;6103375;29;20040;-68
2022/09/30 08:07:26;;;;;;;0.65;0.65;;;;;;;2.80;69.86;98283.56;6103292;29;20048;-69
2022/09/30 08:10:32;;;;;;;1.73;0.98;;;;;;;2.72;69.80;98290.56;6103169;29;20044;-70
2022/09/30 08:13:38;;;;;;;1.30;1.15;;;;;;;2.65;70.25;98284.59;6103165;29;20044;-69
2022/09/30 08:16:40;;;;;;;1.13;1.02;;;;;;;2.55;71.40;98291.63;6102773;29;20060;-67
2022/09/30 08:19:43;;;;;;;1.17;1.08;;;;;;;2.69;70.76;98287.16;6102657;29;20080;-69
2022/09/30 08:22:44;;;;;;;1.05;0.88;;;;;;;2.81;70.65;98280.94;6102699;29;20055;-68
2022/09/30 08:25:48;;;;;;;0.63;0.63;;;;;;;2.92;70.34;98291.22;6102895;29;20048;-70
2022/09/30 08:28:52;;;;;;;0.90;0.90;;;;;;;3.19;68.58;98297.81;6102549;29;20141;-68
2022/09/30 08:31:56;;;;;;;0.88;0.88;;;;;;;3.10;68.94;98293.59;6102937;29;20426;-68
2022/09/30 08:34:57;;;;;;;;;;;;;;;3.43;67.21;98301.88;6102615;29;20093;-68
2022/09/30 08:37:59;;;;;;;1.08;0.98;;;;;;;3.33;67.04;98300.25;6102490;29;20451;-69
2022/09/30 08:41:27;;;;;;;0.65;0.65;;;;;;;3.44;66.73;98300.97;6102328;29;20040;-68
2022/09/30 08:44:44;;;;;;;1.00;0.90;;;;;;;3.48;65.62;98310.47;6102274;29;20135;-69
2022/09/30 08:48:00;;;;;;;0.90;0.80;;;;;;;3.42;66.61;98310.53;6101983;29;20063;-69
2022/09/30 08:51:12;;;;;;;1.42;0.90;;;;;;;3.40;66.44;98314.91;6102100;29;20135;-69
2022/09/30 08:54:22;;;;;;;6.38;3.50;;;;;;;2.96;67.61;98305.91;6101823;29;20108;-69
2022/09/30 08:57:35;;;;;;;5.85;3.75;;;;;;;2.88;68.76;98320.72;6101717;29;20073;-69
2022/09/30 09:00:41;;;;;;;2.65;1.73;;;;;;;3.07;68.78;98314.44;6101947;29;20423;-69
2022/09/30 09:03:45;;;;;;;1.33;1.08;;;;;;;3.02;68.61;98303.22;6101776;29;20138;-68
2022/09/30 09:07:17;;;;;;;0.82;0.65;;;;;;;3.10;68.13;98317.00;6101455;29;20127;-70
2022/09/30 09:10:45;;;;;;;1.05;0.80;;;;;;;3.14;67.75;98321.31;6101657;29;20048;-69
2022/09/30 09:13:59;;;;;;;0.80;0.80;;;;;;;3.13;67.33;98327.38;6101152;29;20048;-69
2022/09/30 09:17:18;;;;;;;;;;;;;;;3.29;67.14;98315.03;6101688;29;20059;-68
2022/09/30 09:20:28;;;;;;;1.23;0.80;;;;;;;3.10;66.82;98322.19;6101540;29;19923;-68
2022/09/30 09:23:32;;;;;;;1.08;0.80;;;;;;;2.99;67.34;98321.47;6101619;29;20146;-69
2022/09/30 09:26:35;;;;;;;1.80;1.63;;;;;;;2.93;67.60;98324.13;6101588;29;20062;-70
2022/09/30 09:30:05;;;;;;;2.65;2.17;;;;;;;3.04;67.87;98331.81;6101434;29;20467;-68
2022/09/30 09:33:22;;;;;;;1.00;0.98;;;;;;;2.93;68.03;98331.94;6101225;29;20426;-68
2022/09/30 09:36:31;;;;;;;2.63;0.93;;;;;;;2.93;68.78;98339.75;6100982;29;20187;-69
2022/09/30 09:39:45;;;;;;;0.80;0.80;;;;;;;2.98;68.46;98339.69;6101501;29;20052;-69
2022/09/30 09:43:06;;;;;;;0.95;0.88;;;;;;;3.23;66.32;98337.66;6101398;29;20063;-68
2022/09/30 09:46:26;;;;;;;1.25;1.08;;;;;;;2.99;67.06;98342.28;6101205;29;20044;-69
2022/09/30 09:49:31;;;;;;;1.92;1.48;;;;;;;2.91;67.48;98347.53;6101371;29;20142;-69
2022/09/30 09:52:32;;;;;;;1.40;1.30;;;;;;;2.88;67.75;98344.97;6101551;29;20062;-69
2022/09/30 09:55:37;;;;;;;1.00;1.00;;;;;;;2.91;67.93;98338.88;6100422;29;20085;-68
2022/09/30 09:59:14;;;;;;;1.77;0.93;;;;;;;3.18;67.43;98342.06;6101182;29;20056;-69
2022/09/30 10:02:23;;;;;;;;;;;;;;;3.21;66.00;98347.25;6101353;29;20454;-68
2022/09/30 10:05:28;;;;;;;1.90;1.13;;;;;;;2.83;67.27;98345.91;6100596;29;19994;-69
2022/09/30 10:08:35;;;;;;;2.58;1.98;;;;;;;2.79;67.90;98354.63;6099102;29;20060;-69
2022/09/30 10:11:39;;;;;;;1.98;1.33;;;;;;;2.81;68.07;98352.88;6099692;29;20060;-69
2022/09/30 10:14:57;;;;;;;2.17;1.10;;;;;;;2.98;67.16;98356.16;6100890;29;20144;-69
2022/09/30 10:17:59;;;;;;;1.63;0.98;;;;;;;2.85;67.12;98350.22;6101197;29;20074;-69
2022/09/30 10:21:06;;;;;;;0.95;0.90;;;;;;;2.94;66.91;98359.66;6101288;29;20056;-68
2022/09/30 10:24:30;;;;;;;1.20;1.10;;;;;;;2.77;67.21;98361.56;6100385;29;20044;-68
2022/09/30 10:27:45;;;;;;;0.90;0.90;;;;;;;2.62;67.96;98362.59;6105296;29;20425;-69
2022/09/30 10:31:03;;;;;;;1.30;1.15;;;;;;;2.80;67.46;98361.53;6105560;29;20080;-69
2022/09/30 10:34:32;;;;;;;1.83;1.40;;;;;;;2.55;68.29;98367.00;6105372;29;20044;-69
2022/09/30 10:37:33;;;;;;;1.85;1.40;;;;;;;2.55;68.49;98364.38;6105067;29;20051;-68
2022/09/30 10:40:38;;;;;;;1.25;1.15;;;;;;;2.65;68.09;98362.56;6103627;29;20560;-70
2022/09/30 10:43:48;;;;;;;2.00;1.20;;;;;;;2.65;68.06;98366.00;6104906;29;20060;-70
2022/09/30 10:47:00;;;;;;;1.60;1.40;;;;;;;2.78;67.33;98363.31;6105071;29;20131;-69
2022/09/30 10:50:03;;;;;;;1.77;1.30;;;;;;;2.66;68.38;98377.25;6104770;29;20200;-69
2022/09/30 10:53:14;;;;;;;1.40;1.30;;;;;;;2.63;68.54;98375.56;6105225;29;20610;-69
2022/09/30 10:56:34;;;;;;;2.42;1.75;;;;;;;2.80;67.80;98384.94;6104568;29;20058;-68
2022/09/30 10:59:37;;;;;;;1.90;1.60;;;;;;;2.62;67.75;98381.63;6104485;29;20438;-68
2022/09/30 11:03:07;;;;;;;1.52;1.40;;;;;;;2.48;68.42;98375.69;6104194;29;20505;-69
2022/09/30 11:06:11;;;;;;;3.08;2.63;;;;;;;2.41;69.01;98379.22;6104184;29;20535;-70
2022/09/30 11:09:43;;;;;;;1.70;1.60;;;;;;;2.59;68.82;98384.25;6104316;29;20047;-69
2022/09/30 11:13:18;;;;;;;1.60;1.50;;;;;;;2.59;69.23;98373.88;6101006;29;20048;-68
2022/09/30 11:16:46;;;;;;;1.90;1.70;;;;;;;2.56;68.84;98384.28;6104365;29;20063;-69
2022/09/30 11:19:56;;;;;;;1.70;1.60;;;;;;;2.57;68.93;98380.81;6104156;29;20091;-67
2022/09/30 11:23:09;;;;;;;1.75;1.65;;;;;;;2.44;69.13;98384.41;6102663;29;20044;-69
2022/09/30 11:26:16;;;;;;;4.72;2.03;;;;;;;2.72;68.15;98389.34;6104124;29;20054;-69
2022/09/30 11:29:38;;;;;;;1.90;1.80;;;;;;;2.67;67.64;98387.66;6103962;29;20047;-69
2022/09/30 11:33:03;;;;;;;4.05;1.50;;;;;;;2.56;67.82;98388.63;6103742;29;20446;-70
2022/09/30 11:36:16;;;;;;;22.80;12.25;;;;;;;2.39;68.85;98387.03;6103414;29;20138;-68
2022/09/30 11:39:54;;;;;;;5.70;3.63;;;;;;;2.27;69.67;98396.66;6103672;29;20043;-68
2022/09/30 11:43:06;;;;;;;5.25;4.28;;;;;;;2.24;70.47;98393.22;6103640;29;20092;-68
2022/09/30 11:46:19;;;;;;;3.38;1.92;;;;;;;2.29;70.38;98379.31;6103395;29;20056;-69
2022/09/30 11:49:47;;;;;;;1.48;1.23;;;;;;;2.46;70.07;98387.81;6103540;29;20080;-69
2022/09/30 11:53:00;;;;;;;2.08;1.38;;;;;;;2.49;69.76;98398.19;6103800;29;20056;-69
2022/09/30 11:56:14;;;;;;;1.30;1.20;;;;;;;2.35;70.87;98392.25;6102835;29;20043;-68
2022/09/30 11:59:25;;;;;;;2.15;1.27;;;;;;;2.41;70.26;98390.47;6102807;29;20047;-68
2022/09/30 12:02:55;;;;;;;1.75;1.48;;;;;;;2.49;69.77;98393.00;6102708;29;20048;-69
2022/09/30 12:06:10;;;;;;;1.95;1.55;;;;;;;2.46;69.76;98391.31;6101193;29;20485;-69
2022/09/30 12:09:22;;;;;;;1.40;1.10;;;;;;;2.53;69.89;98392.13;6102945;29;20044;-68
2022/09/30 12:12:24;;;;;;;1.98;1.40;;;;;;;2.47;69.88;98395.63;6102741;29;20044;-69
2022/09/30 12:15:32;;;;;;;2.55;2.20;;;;;;;2.63;69.36;98391.16;6102783;29;20048;-70
2022/09/30 12:18:38;;;;;;;1.13;1.00;;;;;;;2.61;69.15;98392.91;6102667;29;20052;-69
2022/09/30 12:21:56;;;;;;;2.22;1.80;;;;;;;2.54;69.16;98396.41;6102805;29;20048;-69
2022/09/30 12:25:10;;;;;;;2.78;1.50;;;;;;;2.29;70.36;98389.69;6102982;29;20503;-70
2022/09/30 12:32:32;;;;;;;1.13;1.05;;;;;;;2.31;70.73;98401.81;6102038;29;20056;-70
2022/09/30 12:35:57;;;;;;;1.50;1.40;;;;;;;2.34;70.41;98398.31;6080874;29;20139;-69
2022/09/30 12:39:01;;;;;;;2.92;1.45;;;;;;;2.52;69.68;98397.31;6102232;29;20498;-69
2022/09/30 12:42:20;;;;;;;1.88;1.42;;;;;;;2.35;70.19;98407.84;6102117;29;20486;-69
2022/09/30 12:45:30;;;;;;;3.17;1.40;;;;;;;2.38;70.42;98405.25;6102043;29;20044;-69
2022/09/30 12:48:41;;;;;;;2.25;1.83;;;;;;;2.31;70.31;98407.00;6101320;29;20040;-69
2022/09/30 12:51:50;;;;;;;4.95;2.47;;;;;;;2.29;70.41;98415.69;6101737;29;20130;-69
2022/09/30 12:54:56;;;;;;;2.17;1.77;;;;;;;2.13;70.95;98414.94;6101953;29;20054;-69
2022/09/30 12:58:04;;;;;;;2.47;1.70;;;;;;;2.11;71.17;98416.66;6102001;29;20040;-69
2022/09/30 13:01:15;;;;;;;1.88;1.50;;;;;;;2.16;71.40;98420.97;6101801;29;20079;-68
2022/09/30 13:04:32;;;;;;;2.72;1.77;;;;;;;2.09;71.73;98418.41;6101774;29;20541;-68
2022/09/30 13:07:35;;;;;;;2.10;1.80;;;;;;;2.15;71.67;98428.75;6101734;29;20056;-68
2022/09/30 13:10:37;;;;;;;2.40;1.58;;;;;;;2.05;71.74;98417.56;6101571;29;20044;-69
2022/09/30 13:14:14;;;;;;;2.20;1.73;;;;;;;2.04;72.32;98415.84;6100698;29;20048;-70
2022/09/30 13:17:16;;;;;;;1.67;1.30;;;;;;;2.04;72.31;98426.25;6102094;29;20423;-70
2022/09/30 13:20:56;;;;;;;1.83;1.60;;;;;;;1.97;72.44;98434.94;6101216;29;20534;-68
2022/09/30 13:24:04;;;;;;;2.58;1.52;;;;;;;1.93;72.63;98438.41;6101652;29;20044;-69
2022/09/30 13:27:12;;;;;;;1.92;1.63;;;;;;;1.95;72.59;98445.34;6101097;29;20051;-68
2022/09/30 13:30:14;;;;;;;1.73;1.38;;;;;;;1.93;72.80;98443.63;6101057;29;20051;-69
2022/09/30 13:33:42;;;;;;;2.65;1.85;;;;;;;1.86;72.88;98442.75;6101548;29;20060;-69
2022/09/30 13:36:52;;;;;;;1.60;1.40;;;;;;;1.84;73.40;98447.13;6101220;29;20503;-68
2022/09/30 13:39:55;;;;;;;1.67;1.52;;;;;;;1.78;73.40;98440.22;6101218;29;20127;-69
2022/09/30 13:43:03;;;;;;;2.50;1.40;;;;;;;1.86;73.66;98454.88;6101348;29;20458;-69
2022/09/30 13:46:34;;;;;;;2.60;2.08;;;;;;;1.87;73.32;98454.00;6101063;29;20048;-69
2022/09/30 13:49:51;;;;;;;2.35;1.88;;;;;;;2.05;73.39;98453.91;6101313;29;20048;-69
2022/09/30 13:52:57;;;;;;;1.85;1.50;;;;;;;1.92;73.40;98457.44;6101257;29;20199;-69
2022/09/30 13:56:05;;;;;;;2.78;1.50;;;;;;;1.77;73.92;98459.25;6100489;29;20063;-69
2022/09/30 13:59:22;;;;;;;2.25;1.58;;;;;;;1.81;74.33;98467.88;6102698;29;20055;-69
2022/09/30 14:02:41;;;;;;;2.22;1.70;;;;;;;1.86;74.30;98467.84;6105818;29;20526;-69
2022/09/30 14:06:01;;;;;;;2.38;1.85;;;;;;;1.79;74.35;98467.88;6106176;29;20044;-71
2022/09/30 14:09:05;;;;;;;2.58;1.55;;;;;;;1.80;74.52;98469.59;6105547;29;20066;-69
2022/09/30 14:12:43;;;;;;;1.85;1.42;;;;;;;1.81;74.45;98467.88;6105612;29;20043;-69
2022/09/30 14:16:10;;;;;;;2.38;1.88;;;;;;;1.80;74.84;98471.34;6089095;29;20059;-70
2022/09/30 14:19:45;;;;;;;2.22;1.80;;;;;;;1.76;74.25;98461.84;6105419;29;20047;-70
2022/09/30 14:22:50;;;;;;;2.78;1.50;;;;;;;1.79;74.98;98483.47;6105748;29;20087;-70
2022/09/30 14:26:28;;;;;;;2.78;1.63;;;;;;;1.85;74.85;98482.56;6105434;29;20048;-69
2022/09/30 14:29:52;;;;;;;1.60;1.38;;;;;;;1.85;74.68;98479.13;6105233;29;20055;-70
2022/09/30 14:33:01;;;;;;;1.40;1.30;;;;;;;1.84;75.03;98487.75;6105400;29;20040;-68
2022/09/30 14:36:12;;;;;;;2.63;1.65;;;;;;;1.82;74.70;98481.72;6104975;29;20079;-69
2022/09/30 14:39:18;;;;;;;1.67;1.50;;;;;;;1.88;75.24;98484.31;6105090;29;20052;-69
2022/09/30 14:42:33;;;;;;;1.98;1.88;;;;;;;1.96;74.94;98490.31;6105196;29;20044;-70
2022/09/30 14:45:37;;;;;;;1.67;1.58;;;;;;;1.98;75.05;98494.63;6105172;29;20048;-68
2022/09/30 14:48:47;;;;;;;1.98;1.73;;;;;;;1.98;74.98;98496.34;6105054;29;20039;-70
2022/09/30 14:51:49;;;;;;;4.18;2.00;;;;;;;1.96;75.25;98495.50;6104721;29;20503;-68
2022/09/30 14:54:50;;;;;;;1.88;1.70;;;;;;;1.97;75.23;98492.03;6104778;29;20038;-70
2022/09/30 14:58:13;;;;;;;2.35;1.85;;;;;;;1.98;75.20;98484.25;6104687;29;20060;-69
2022/09/30 15:01:20;;;;;;;2.53;1.13;;;;;;;2.04;75.05;98493.75;6097494;29;20052;-70
2022/09/30 15:04:28;;;;;;;1.58;1.48;;;;;;;2.05;74.40;98495.47;6104871;29;20127;-70
2022/09/30 15:07:32;;;;;;;2.60;1.98;;;;;;;2.04;74.19;98488.56;6104416;29;20062;-69
2022/09/30 15:10:36;;;;;;;4.57;1.98;;;;;;;1.89;74.75;98479.09;6103383;29;20052;-69
2022/09/30 15:13:39;;;;;;;2.22;1.65;;;;;;;1.91;75.01;98489.47;6104157;29;20062;-69